sensor_id;sensor_type;location;lat;lon;timestamp;P1;durP1;ratioP1;P2;durP2;ratioP2
21494;SDS011;10909;53.590;10.054;2023-04-24T00:00:41;2.90;;;2.70;;
21494;SDS011;10909;53.590;10.054;2023-04-24T00:03:10;2.90;;;2.50;;
21494;SDS011;10909;53.590;10.054;2023-04-24T00:05:36;3.05;;;2.53;;
21494;SDS011;10909;53.590;10.054;2023-04-24T00:08:02;2.60;;;2.40;;
21494;SDS011;10909;53.590;10.054;2023-04-24T00:10:27;3.40;;;2.60;;
21494;SDS011;10909;53.590;10.054;2023-04-24T00:12:53;3.90;;;2.67;;
21494;SDS011;10909;53.590;10.054;2023-04-24T00:15:19;2.50;;;2.30;;
21494;SDS011;10909;53.590;10.054;2023-04-24T00:17:46;2.47;;;2.20;;
21494;SDS011;10909;53.590;10.054;2023-04-24T00:20:18;2.47;;;2.28;;
21494;SDS011;10909;53.590;10.054;2023-04-24T00:22:55;2.58;;;2.38;;
21494;SDS011;10909;53.590;10.054;2023-04-24T00:25:24;2.80;;;2.60;;
21494;SDS011;10909;53.590;10.054;2023-04-24T00:27:49;3.35;;;2.30;;
21494;SDS011;10909;53.590;10.054;2023-04-24T00:30:15;2.55;;;2.20;;
21494;SDS011;10909;53.590;10.054;2023-04-24T00:32:41;2.50;;;2.30;;
21494;SDS011;10909;53.590;10.054;2023-04-24T00:35:07;4.15;;;2.35;;
21494;SDS011;10909;53.590;10.054;2023-04-24T00:37:33;2.50;;;2.30;;
21494;SDS011;10909;53.590;10.054;2023-04-24T00:39:58;2.47;;;2.28;;
21494;SDS011;10909;53.590;10.054;2023-04-24T00:42:24;2.67;;;2.47;;
21494;SDS011;10909;53.590;10.054;2023-04-24T00:44:53;2.35;;;2.15;;
21494;SDS011;10909;53.590;10.054;2023-04-24T00:47:25;2.40;;;2.20;;
21494;SDS011;10909;53.590;10.054;2023-04-24T00:49:51;2.40;;;2.20;;
21494;SDS011;10909;53.590;10.054;2023-04-24T00:52:22;2.40;;;2.20;;
21494;SDS011;10909;53.590;10.054;2023-04-24T00:54:49;3.05;;;2.28;;
21494;SDS011;10909;53.590;10.054;2023-04-24T00:57:15;2.78;;;2.47;;
21494;SDS011;10909;53.590;10.054;2023-04-24T00:59:41;2.55;;;2.33;;
21494;SDS011;10909;53.590;10.054;2023-04-24T01:02:08;3.08;;;2.60;;
21494;SDS011;10909;53.590;10.054;2023-04-24T01:04:35;3.33;;;2.60;;
21494;SDS011;10909;53.590;10.054;2023-04-24T01:07:04;2.67;;;2.47;;
21494;SDS011;10909;53.590;10.054;2023-04-24T01:09:39;2.60;;;2.40;;
21494;SDS011;10909;53.590;10.054;2023-04-24T01:12:09;2.85;;;2.65;;
21494;SDS011;10909;53.590;10.054;2023-04-24T01:14:34;2.80;;;2.60;;
21494;SDS011;10909;53.590;10.054;2023-04-24T01:17:01;2.55;;;2.35;;
21494;SDS011;10909;53.590;10.054;2023-04-24T01:19:27;2.65;;;2.45;;
21494;SDS011;10909;53.590;10.054;2023-04-24T01:21:53;2.80;;;2.60;;
21494;SDS011;10909;53.590;10.054;2023-04-24T01:24:23;2.97;;;2.67;;
21494;SDS011;10909;53.590;10.054;2023-04-24T01:26:48;3.65;;;2.80;;
21494;SDS011;10909;53.590;10.054;2023-04-24T01:29:14;2.55;;;2.35;;
21494;SDS011;10909;53.590;10.054;2023-04-24T01:31:40;3.08;;;2.78;;
21494;SDS011;10909;53.590;10.054;2023-04-24T01:34:06;2.85;;;2.65;;
21494;SDS011;10909;53.590;10.054;2023-04-24T01:36:33;2.50;;;2.30;;
21494;SDS011;10909;53.590;10.054;2023-04-24T01:39:01;2.97;;;2.67;;
21494;SDS011;10909;53.590;10.054;2023-04-24T01:41:28;3.15;;;2.60;;
21494;SDS011;10909;53.590;10.054;2023-04-24T01:43:55;2.60;;;2.40;;
21494;SDS011;10909;53.590;10.054;2023-04-24T01:46:22;4.57;;;2.70;;
21494;SDS011;10909;53.590;10.054;2023-04-24T01:48:47;2.58;;;2.38;;
21494;SDS011;10909;53.590;10.054;2023-04-24T01:51:13;2.60;;;2.40;;
21494;SDS011;10909;53.590;10.054;2023-04-24T01:53:39;2.55;;;2.35;;
21494;SDS011;10909;53.590;10.054;2023-04-24T01:56:05;2.85;;;2.40;;
21494;SDS011;10909;53.590;10.054;2023-04-24T01:58:31;2.92;;;2.45;;
21494;SDS011;10909;53.590;10.054;2023-04-24T02:01:15;2.30;;;2.10;;
21494;SDS011;10909;53.590;10.054;2023-04-24T02:03:48;2.72;;;2.15;;
21494;SDS011;10909;53.590;10.054;2023-04-24T02:06:14;2.00;;;1.90;;
21494;SDS011;10909;53.590;10.054;2023-04-24T02:08:40;2.58;;;2.00;;
21494;SDS011;10909;53.590;10.054;2023-04-24T02:11:05;3.93;;;2.10;;
21494;SDS011;10909;53.590;10.054;2023-04-24T02:13:31;2.10;;;1.90;;
21494;SDS011;10909;53.590;10.054;2023-04-24T02:16:00;1.80;;;1.60;;
21494;SDS011;10909;53.590;10.054;2023-04-24T02:18:26;2.03;;;1.83;;
21494;SDS011;10909;53.590;10.054;2023-04-24T02:20:52;1.73;;;1.63;;
21494;SDS011;10909;53.590;10.054;2023-04-24T02:23:17;2.20;;;1.60;;
21494;SDS011;10909;53.590;10.054;2023-04-24T02:25:43;2.00;;;1.77;;
21494;SDS011;10909;53.590;10.054;2023-04-24T02:28:09;2.27;;;1.80;;
21494;SDS011;10909;53.590;10.054;2023-04-24T02:30:35;1.93;;;1.70;;
21494;SDS011;10909;53.590;10.054;2023-04-24T02:33:00;2.17;;;1.97;;
21494;SDS011;10909;53.590;10.054;2023-04-24T02:35:26;1.83;;;1.63;;
21494;SDS011;10909;53.590;10.054;2023-04-24T02:37:52;1.70;;;1.60;;
21494;SDS011;10909;53.590;10.054;2023-04-24T02:40:17;1.57;;;1.47;;
21494;SDS011;10909;53.590;10.054;2023-04-24T02:42:43;1.77;;;1.67;;
21494;SDS011;10909;53.590;10.054;2023-04-24T02:45:09;1.77;;;1.60;;
21494;SDS011;10909;53.590;10.054;2023-04-24T02:47:39;2.17;;;1.57;;
21494;SDS011;10909;53.590;10.054;2023-04-24T02:50:05;1.77;;;1.53;;
21494;SDS011;10909;53.590;10.054;2023-04-24T02:52:31;1.80;;;1.70;;
21494;SDS011;10909;53.590;10.054;2023-04-24T02:54:57;1.57;;;1.47;;
21494;SDS011;10909;53.590;10.054;2023-04-24T02:57:23;1.63;;;1.43;;
21494;SDS011;10909;53.590;10.054;2023-04-24T02:59:48;3.03;;;1.70;;
21494;SDS011;10909;53.590;10.054;2023-04-24T03:02:14;1.70;;;1.60;;
21494;SDS011;10909;53.590;10.054;2023-04-24T03:04:40;1.40;;;1.30;;
21494;SDS011;10909;53.590;10.054;2023-04-24T03:07:07;1.50;;;1.40;;
21494;SDS011;10909;53.590;10.054;2023-04-24T03:09:35;1.67;;;1.47;;
21494;SDS011;10909;53.590;10.054;2023-04-24T03:12:00;1.23;;;1.13;;
21494;SDS011;10909;53.590;10.054;2023-04-24T03:14:26;1.27;;;1.17;;
21494;SDS011;10909;53.590;10.054;2023-04-24T03:16:51;1.43;;;1.33;;
21494;SDS011;10909;53.590;10.054;2023-04-24T03:19:17;2.27;;;1.50;;
21494;SDS011;10909;53.590;10.054;2023-04-24T03:21:43;1.60;;;1.50;;
21494;SDS011;10909;53.590;10.054;2023-04-24T03:24:09;1.87;;;1.20;;
21494;SDS011;10909;53.590;10.054;2023-04-24T03:26:35;3.27;;;1.53;;
21494;SDS011;10909;53.590;10.054;2023-04-24T03:29:01;1.60;;;1.50;;
21494;SDS011;10909;53.590;10.054;2023-04-24T03:31:29;1.33;;;1.10;;
21494;SDS011;10909;53.590;10.054;2023-04-24T03:33:55;2.57;;;1.37;;
21494;SDS011;10909;53.590;10.054;2023-04-24T03:36:20;1.20;;;1.10;;
21494;SDS011;10909;53.590;10.054;2023-04-24T03:38:46;1.47;;;1.07;;
21494;SDS011;10909;53.590;10.054;2023-04-24T03:41:11;1.30;;;1.10;;
21494;SDS011;10909;53.590;10.054;2023-04-24T03:43:37;1.20;;;1.10;;
21494;SDS011;10909;53.590;10.054;2023-04-24T03:46:04;1.30;;;1.20;;
21494;SDS011;10909;53.590;10.054;2023-04-24T03:48:30;1.10;;;1.00;;
21494;SDS011;10909;53.590;10.054;2023-04-24T03:50:56;2.00;;;1.20;;
21494;SDS011;10909;53.590;10.054;2023-04-24T03:53:22;1.27;;;1.17;;
21494;SDS011;10909;53.590;10.054;2023-04-24T03:55:48;1.23;;;1.10;;
21494;SDS011;10909;53.590;10.054;2023-04-24T03:58:14;1.50;;;1.40;;
21494;SDS011;10909;53.590;10.054;2023-04-24T04:00:40;1.63;;;1.20;;
21494;SDS011;10909;53.590;10.054;2023-04-24T04:03:06;1.17;;;1.07;;
21494;SDS011;10909;53.590;10.054;2023-04-24T04:05:31;1.53;;;1.10;;
21494;SDS011;10909;53.590;10.054;2023-04-24T04:07:57;2.10;;;1.30;;
21494;SDS011;10909;53.590;10.054;2023-04-24T04:10:23;1.40;;;1.30;;
21494;SDS011;10909;53.590;10.054;2023-04-24T04:12:49;1.23;;;1.13;;
21494;SDS011;10909;53.590;10.054;2023-04-24T04:15:15;1.40;;;1.20;;
21494;SDS011;10909;53.590;10.054;2023-04-24T04:17:40;1.30;;;1.20;;
21494;SDS011;10909;53.590;10.054;2023-04-24T04:20:06;1.13;;;1.03;;
21494;SDS011;10909;53.590;10.054;2023-04-24T04:22:35;1.40;;;1.30;;
21494;SDS011;10909;53.590;10.054;2023-04-24T04:25:01;1.20;;;1.10;;
21494;SDS011;10909;53.590;10.054;2023-04-24T04:27:28;1.10;;;1.00;;
21494;SDS011;10909;53.590;10.054;2023-04-24T04:29:57;1.30;;;1.10;;
21494;SDS011;10909;53.590;10.054;2023-04-24T04:32:27;1.20;;;1.10;;
21494;SDS011;10909;53.590;10.054;2023-04-24T04:34:53;1.20;;;1.00;;
21494;SDS011;10909;53.590;10.054;2023-04-24T04:37:19;1.67;;;1.10;;
21494;SDS011;10909;53.590;10.054;2023-04-24T04:39:45;1.97;;;0.97;;
21494;SDS011;10909;53.590;10.054;2023-04-24T04:42:11;0.93;;;0.90;;
21494;SDS011;10909;53.590;10.054;2023-04-24T04:44:37;1.50;;;1.20;;
21494;SDS011;10909;53.590;10.054;2023-04-24T04:47:03;1.17;;;1.07;;
21494;SDS011;10909;53.590;10.054;2023-04-24T04:49:30;0.90;;;0.80;;
21494;SDS011;10909;53.590;10.054;2023-04-24T04:51:57;1.60;;;0.90;;
21494;SDS011;10909;53.590;10.054;2023-04-24T04:54:23;1.37;;;1.00;;
21494;SDS011;10909;53.590;10.054;2023-04-24T04:56:52;0.87;;;0.87;;
21494;SDS011;10909;53.590;10.054;2023-04-24T04:59:28;1.37;;;1.27;;
21494;SDS011;10909;53.590;10.054;2023-04-24T05:02:04;1.40;;;1.00;;
21494;SDS011;10909;53.590;10.054;2023-04-24T05:04:32;0.80;;;0.80;;
21494;SDS011;10909;53.590;10.054;2023-04-24T05:06:58;1.03;;;1.00;;
21494;SDS011;10909;53.590;10.054;2023-04-24T05:09:23;1.30;;;1.07;;
21494;SDS011;10909;53.590;10.054;2023-04-24T05:11:52;1.13;;;0.97;;
21494;SDS011;10909;53.590;10.054;2023-04-24T05:14:18;1.30;;;1.20;;
21494;SDS011;10909;53.590;10.054;2023-04-24T05:16:44;1.00;;;0.90;;
21494;SDS011;10909;53.590;10.054;2023-04-24T05:19:10;1.00;;;0.90;;
21494;SDS011;10909;53.590;10.054;2023-04-24T05:21:40;3.17;;;1.00;;
21494;SDS011;10909;53.590;10.054;2023-04-24T05:24:08;1.10;;;1.00;;
21494;SDS011;10909;53.590;10.054;2023-04-24T05:26:35;1.27;;;1.10;;
21494;SDS011;10909;53.590;10.054;2023-04-24T05:29:06;1.10;;;1.00;;
21494;SDS011;10909;53.590;10.054;2023-04-24T05:31:32;0.90;;;0.90;;
21494;SDS011;10909;53.590;10.054;2023-04-24T05:33:58;0.80;;;0.80;;
21494;SDS011;10909;53.590;10.054;2023-04-24T05:36:23;1.53;;;0.90;;
21494;SDS011;10909;53.590;10.054;2023-04-24T05:38:49;1.23;;;0.97;;
21494;SDS011;10909;53.590;10.054;2023-04-24T05:41:15;1.53;;;0.90;;
21494;SDS011;10909;53.590;10.054;2023-04-24T05:43:51;2.50;;;0.90;;
21494;SDS011;10909;53.590;10.054;2023-04-24T05:46:16;1.70;;;1.13;;
21494;SDS011;10909;53.590;10.054;2023-04-24T05:48:42;0.90;;;0.80;;
21494;SDS011;10909;53.590;10.054;2023-04-24T05:51:09;0.93;;;0.90;;
21494;SDS011;10909;53.590;10.054;2023-04-24T05:53:36;2.07;;;1.00;;
21494;SDS011;10909;53.590;10.054;2023-04-24T05:56:02;2.43;;;0.87;;
21494;SDS011;10909;53.590;10.054;2023-04-24T05:58:31;1.90;;;1.30;;
21494;SDS011;10909;53.590;10.054;2023-04-24T06:00:56;1.10;;;1.00;;
21494;SDS011;10909;53.590;10.054;2023-04-24T06:03:23;1.03;;;0.93;;
21494;SDS011;10909;53.590;10.054;2023-04-24T06:05:50;2.57;;;1.10;;
21494;SDS011;10909;53.590;10.054;2023-04-24T06:08:16;1.63;;;1.10;;
21494;SDS011;10909;53.590;10.054;2023-04-24T06:10:42;1.13;;;1.00;;
21494;SDS011;10909;53.590;10.054;2023-04-24T06:13:07;0.93;;;0.93;;
21494;SDS011;10909;53.590;10.054;2023-04-24T06:15:33;1.10;;;1.00;;
21494;SDS011;10909;53.590;10.054;2023-04-24T06:17:59;1.27;;;0.70;;
21494;SDS011;10909;53.590;10.054;2023-04-24T06:20:25;1.13;;;1.03;;
21494;SDS011;10909;53.590;10.054;2023-04-24T06:22:50;1.70;;;1.07;;
21494;SDS011;10909;53.590;10.054;2023-04-24T06:25:16;1.57;;;1.00;;
21494;SDS011;10909;53.590;10.054;2023-04-24T06:27:42;1.00;;;1.00;;
21494;SDS011;10909;53.590;10.054;2023-04-24T06:30:07;1.10;;;1.00;;
21494;SDS011;10909;53.590;10.054;2023-04-24T06:32:34;0.80;;;0.80;;
21494;SDS011;10909;53.590;10.054;2023-04-24T06:34:59;1.13;;;1.03;;
21494;SDS011;10909;53.590;10.054;2023-04-24T06:37:25;1.10;;;1.00;;
21494;SDS011;10909;53.590;10.054;2023-04-24T06:39:51;1.37;;;1.07;;
21494;SDS011;10909;53.590;10.054;2023-04-24T06:42:18;1.00;;;0.85;;
21494;SDS011;10909;53.590;10.054;2023-04-24T06:44:47;1.20;;;1.10;;
21494;SDS011;10909;53.590;10.054;2023-04-24T06:47:16;1.50;;;1.27;;
21494;SDS011;10909;53.590;10.054;2023-04-24T06:49:47;1.50;;;1.40;;
21494;SDS011;10909;53.590;10.054;2023-04-24T06:52:13;1.40;;;1.25;;
21494;SDS011;10909;53.590;10.054;2023-04-24T06:54:41;1.30;;;1.20;;
21494;SDS011;10909;53.590;10.054;2023-04-24T06:57:06;1.90;;;1.23;;
21494;SDS011;10909;53.590;10.054;2023-04-24T06:59:33;1.52;;;1.20;;
21494;SDS011;10909;53.590;10.054;2023-04-24T07:02:01;1.23;;;1.13;;
21494;SDS011;10909;53.590;10.054;2023-04-24T07:04:31;1.20;;;1.10;;
21494;SDS011;10909;53.590;10.054;2023-04-24T07:06:57;1.90;;;1.38;;
21494;SDS011;10909;53.590;10.054;2023-04-24T07:09:23;1.30;;;1.20;;
21494;SDS011;10909;53.590;10.054;2023-04-24T07:11:50;1.35;;;1.20;;
21494;SDS011;10909;53.590;10.054;2023-04-24T07:14:17;1.30;;;1.20;;
21494;SDS011;10909;53.590;10.054;2023-04-24T07:16:43;2.25;;;1.40;;
21494;SDS011;10909;53.590;10.054;2023-04-24T07:19:09;1.52;;;1.40;;
21494;SDS011;10909;53.590;10.054;2023-04-24T07:21:35;1.48;;;1.38;;
21494;SDS011;10909;53.590;10.054;2023-04-24T07:24:01;1.63;;;1.52;;
21494;SDS011;10909;53.590;10.054;2023-04-24T07:26:27;2.30;;;1.45;;
21494;SDS011;10909;53.590;10.054;2023-04-24T07:28:54;1.63;;;1.45;;
21494;SDS011;10909;53.590;10.054;2023-04-24T07:31:21;2.03;;;1.55;;
21494;SDS011;10909;53.590;10.054;2023-04-24T07:33:46;2.85;;;1.75;;
21494;SDS011;10909;53.590;10.054;2023-04-24T07:36:14;1.60;;;1.50;;
21494;SDS011;10909;53.590;10.054;2023-04-24T07:38:44;3.03;;;1.52;;
21494;SDS011;10909;53.590;10.054;2023-04-24T07:41:10;1.50;;;1.40;;
21494;SDS011;10909;53.590;10.054;2023-04-24T07:43:37;1.42;;;1.33;;
21494;SDS011;10909;53.590;10.054;2023-04-24T07:46:02;1.65;;;1.55;;
21494;SDS011;10909;53.590;10.054;2023-04-24T07:48:28;1.80;;;1.70;;
21494;SDS011;10909;53.590;10.054;2023-04-24T07:50:56;1.42;;;1.33;;
21494;SDS011;10909;53.590;10.054;2023-04-24T07:53:30;2.00;;;1.77;;
21494;SDS011;10909;53.590;10.054;2023-04-24T07:55:58;2.45;;;2.10;;
21494;SDS011;10909;53.590;10.054;2023-04-24T07:58:29;2.75;;;1.60;;
21494;SDS011;10909;53.590;10.054;2023-04-24T08:00:54;2.50;;;1.70;;
21494;SDS011;10909;53.590;10.054;2023-04-24T08:03:20;2.25;;;1.80;;
21494;SDS011;10909;53.590;10.054;2023-04-24T08:05:46;1.90;;;1.80;;
21494;SDS011;10909;53.590;10.054;2023-04-24T08:08:12;2.22;;;2.03;;
21494;SDS011;10909;53.590;10.054;2023-04-24T08:10:38;2.38;;;2.13;;
21494;SDS011;10909;53.590;10.054;2023-04-24T08:13:07;2.30;;;2.10;;
21494;SDS011;10909;53.590;10.054;2023-04-24T08:15:33;5.30;;;2.13;;
21494;SDS011;10909;53.590;10.054;2023-04-24T08:17:58;2.40;;;2.20;;
21494;SDS011;10909;53.590;10.054;2023-04-24T08:20:24;2.60;;;2.40;;
21494;SDS011;10909;53.590;10.054;2023-04-24T08:22:50;2.58;;;2.38;;
21494;SDS011;10909;53.590;10.054;2023-04-24T08:25:16;2.35;;;2.15;;
21494;SDS011;10909;53.590;10.054;2023-04-24T08:27:44;2.50;;;2.22;;
21494;SDS011;10909;53.590;10.054;2023-04-24T08:30:10;2.30;;;2.10;;
21494;SDS011;10909;53.590;10.054;2023-04-24T08:32:36;2.50;;;2.30;;
21494;SDS011;10909;53.590;10.054;2023-04-24T08:35:02;3.72;;;2.63;;
21494;SDS011;10909;53.590;10.054;2023-04-24T08:37:34;1.98;;;1.88;;
21494;SDS011;10909;53.590;10.054;2023-04-24T08:40:06;3.75;;;2.60;;
21494;SDS011;10909;53.590;10.054;2023-04-24T08:42:37;2.70;;;2.50;;
21494;SDS011;10909;53.590;10.054;2023-04-24T08:45:04;2.95;;;2.65;;
21494;SDS011;10909;53.590;10.054;2023-04-24T08:47:31;2.45;;;2.25;;
21494;SDS011;10909;53.590;10.054;2023-04-24T08:49:58;3.05;;;2.72;;
21494;SDS011;10909;53.590;10.054;2023-04-24T08:52:27;2.65;;;2.20;;
21494;SDS011;10909;53.590;10.054;2023-04-24T08:54:53;3.13;;;2.80;;
21494;SDS011;10909;53.590;10.054;2023-04-24T08:57:19;2.72;;;2.53;;
21494;SDS011;10909;53.590;10.054;2023-04-24T08:59:45;3.30;;;2.40;;
21494;SDS011;10909;53.590;10.054;2023-04-24T09:02:13;2.83;;;2.63;;
21494;SDS011;10909;53.590;10.054;2023-04-24T09:04:43;3.42;;;2.67;;
21494;SDS011;10909;53.590;10.054;2023-04-24T09:07:16;2.80;;;2.30;;
21494;SDS011;10909;53.590;10.054;2023-04-24T09:09:43;2.53;;;2.33;;
21494;SDS011;10909;53.590;10.054;2023-04-24T09:12:09;2.85;;;2.60;;
21494;SDS011;10909;53.590;10.054;2023-04-24T09:14:35;2.53;;;2.33;;
21494;SDS011;10909;53.590;10.054;2023-04-24T09:17:04;2.60;;;2.40;;
21494;SDS011;10909;53.590;10.054;2023-04-24T09:19:31;2.72;;;2.53;;
21494;SDS011;10909;53.590;10.054;2023-04-24T09:21:57;2.45;;;2.22;;
21494;SDS011;10909;53.590;10.054;2023-04-24T09:24:22;2.67;;;2.47;;
21494;SDS011;10909;53.590;10.054;2023-04-24T09:26:49;2.85;;;2.40;;
21494;SDS011;10909;53.590;10.054;2023-04-24T09:29:22;2.50;;;2.30;;
21494;SDS011;10909;53.590;10.054;2023-04-24T09:31:48;2.45;;;2.25;;
21494;SDS011;10909;53.590;10.054;2023-04-24T09:34:18;3.00;;;2.47;;
21494;SDS011;10909;53.590;10.054;2023-04-24T09:36:50;3.00;;;2.10;;
21494;SDS011;10909;53.590;10.054;2023-04-24T09:39:16;3.15;;;2.50;;
21494;SDS011;10909;53.590;10.054;2023-04-24T09:41:51;2.83;;;2.50;;
21494;SDS011;10909;53.590;10.054;2023-04-24T09:44:19;2.65;;;2.45;;
21494;SDS011;10909;53.590;10.054;2023-04-24T09:46:50;2.83;;;2.63;;
21494;SDS011;10909;53.590;10.054;2023-04-24T09:49:27;2.58;;;2.38;;
21494;SDS011;10909;53.590;10.054;2023-04-24T09:54:30;2.80;;;2.50;;
21494;SDS011;10909;53.590;10.054;2023-04-24T09:56:56;2.63;;;2.42;;
21494;SDS011;10909;53.590;10.054;2023-04-24T09:59:22;3.15;;;2.63;;
21494;SDS011;10909;53.590;10.054;2023-04-24T10:01:49;3.72;;;2.50;;
21494;SDS011;10909;53.590;10.054;2023-04-24T10:04:25;2.50;;;2.30;;
21494;SDS011;10909;53.590;10.054;2023-04-24T10:06:52;3.65;;;2.55;;
21494;SDS011;10909;53.590;10.054;2023-04-24T10:09:20;3.70;;;2.58;;
21494;SDS011;10909;53.590;10.054;2023-04-24T10:11:48;2.85;;;2.65;;
21494;SDS011;10909;53.590;10.054;2023-04-24T10:14:16;3.78;;;2.88;;
21494;SDS011;10909;53.590;10.054;2023-04-24T10:16:46;2.80;;;2.60;;
21494;SDS011;10909;53.590;10.054;2023-04-24T10:19:13;3.38;;;2.70;;
21494;SDS011;10909;53.590;10.054;2023-04-24T10:21:41;3.25;;;2.95;;
21494;SDS011;10909;53.590;10.054;2023-04-24T10:24:11;2.85;;;2.65;;
21494;SDS011;10909;53.590;10.054;2023-04-24T10:26:46;3.28;;;2.97;;
21494;SDS011;10909;53.590;10.054;2023-04-24T10:29:14;3.60;;;3.30;;
21494;SDS011;10909;53.590;10.054;2023-04-24T10:31:42;3.80;;;3.50;;
21494;SDS011;10909;53.590;10.054;2023-04-24T10:34:10;4.60;;;4.03;;
21494;SDS011;10909;53.590;10.054;2023-04-24T10:36:41;4.60;;;4.10;;
21494;SDS011;10909;53.590;10.054;2023-04-24T10:39:12;6.63;;;4.28;;
21494;SDS011;10909;53.590;10.054;2023-04-24T10:41:40;4.43;;;4.03;;
21494;SDS011;10909;53.590;10.054;2023-04-24T10:44:09;3.78;;;3.47;;
21494;SDS011;10909;53.590;10.054;2023-04-24T10:46:45;4.00;;;3.63;;
21494;SDS011;10909;53.590;10.054;2023-04-24T10:49:14;4.72;;;4.32;;
21494;SDS011;10909;53.590;10.054;2023-04-24T10:51:46;5.03;;;4.63;;
21494;SDS011;10909;53.590;10.054;2023-04-24T10:54:26;4.57;;;4.10;;
21494;SDS011;10909;53.590;10.054;2023-04-24T11:02:41;5.40;;;4.50;;
21494;SDS011;10909;53.590;10.054;2023-04-24T11:05:14;5.10;;;4.55;;
21494;SDS011;10909;53.590;10.054;2023-04-24T11:10:44;5.97;;;4.55;;
21494;SDS011;10909;53.590;10.054;2023-04-24T11:13:12;4.95;;;4.55;;
21494;SDS011;10909;53.590;10.054;2023-04-24T11:15:41;5.60;;;4.63;;
21494;SDS011;10909;53.590;10.054;2023-04-24T11:18:12;5.82;;;5.28;;
21494;SDS011;10909;53.590;10.054;2023-04-24T11:20:41;4.78;;;4.38;;
21494;SDS011;10909;53.590;10.054;2023-04-24T11:23:08;5.07;;;4.32;;
21494;SDS011;10909;53.590;10.054;2023-04-24T11:25:35;4.63;;;4.20;;
21494;SDS011;10909;53.590;10.054;2023-04-24T11:28:05;5.43;;;4.82;;
21494;SDS011;10909;53.590;10.054;2023-04-24T11:30:44;4.93;;;4.53;;
21494;SDS011;10909;53.590;10.054;2023-04-24T11:33:09;4.95;;;4.45;;
21494;SDS011;10909;53.590;10.054;2023-04-24T11:35:36;5.22;;;4.72;;
21494;SDS011;10909;53.590;10.054;2023-04-24T11:38:05;5.68;;;4.65;;
21494;SDS011;10909;53.590;10.054;2023-04-24T11:40:34;6.22;;;4.65;;
21494;SDS011;10909;53.590;10.054;2023-04-24T11:43:02;5.30;;;4.53;;
21494;SDS011;10909;53.590;10.054;2023-04-24T11:45:30;5.00;;;4.55;;
21494;SDS011;10909;53.590;10.054;2023-04-24T11:47:56;4.72;;;4.32;;
21494;SDS011;10909;53.590;10.054;2023-04-24T11:50:24;5.78;;;4.53;;
21494;SDS011;10909;53.590;10.054;2023-04-24T11:52:55;4.97;;;4.47;;
21494;SDS011;10909;53.590;10.054;2023-04-24T11:57:49;4.28;;;3.88;;
21494;SDS011;10909;53.590;10.054;2023-04-24T12:00:21;5.65;;;3.70;;
21494;SDS011;10909;53.590;10.054;2023-04-24T12:02:59;4.13;;;3.72;;
21494;SDS011;10909;53.590;10.054;2023-04-24T12:05:32;4.72;;;4.03;;
21494;SDS011;10909;53.590;10.054;2023-04-24T12:07:58;5.57;;;3.53;;
21494;SDS011;10909;53.590;10.054;2023-04-24T12:10:25;4.15;;;3.53;;
21494;SDS011;10909;53.590;10.054;2023-04-24T12:12:52;3.53;;;3.13;;
21494;SDS011;10909;53.590;10.054;2023-04-24T12:15:21;5.15;;;3.55;;
21494;SDS011;10909;53.590;10.054;2023-04-24T12:17:47;3.92;;;3.55;;
21494;SDS011;10909;53.590;10.054;2023-04-24T12:20:15;4.28;;;3.28;;
21494;SDS011;10909;53.590;10.054;2023-04-24T12:25:19;3.78;;;3.47;;
21494;SDS011;10909;53.590;10.054;2023-04-24T12:27:46;4.03;;;3.63;;
21494;SDS011;10909;53.590;10.054;2023-04-24T12:30:17;3.88;;;3.50;;
21494;SDS011;10909;53.590;10.054;2023-04-24T12:32:44;4.88;;;3.45;;
21494;SDS011;10909;53.590;10.054;2023-04-24T12:35:18;3.70;;;3.40;;
21494;SDS011;10909;53.590;10.054;2023-04-24T12:37:45;3.97;;;3.58;;
21494;SDS011;10909;53.590;10.054;2023-04-24T12:40:13;4.18;;;3.78;;
21494;SDS011;10909;53.590;10.054;2023-04-24T12:42:43;4.20;;;3.83;;
21494;SDS011;10909;53.590;10.054;2023-04-24T12:45:13;3.40;;;3.10;;
21494;SDS011;10909;53.590;10.054;2023-04-24T12:47:43;3.42;;;3.13;;
21494;SDS011;10909;53.590;10.054;2023-04-24T12:50:10;3.75;;;3.40;;
21494;SDS011;10909;53.590;10.054;2023-04-24T12:52:38;3.90;;;3.20;;
21494;SDS011;10909;53.590;10.054;2023-04-24T12:55:05;3.70;;;3.22;;
21494;SDS011;10909;53.590;10.054;2023-04-24T12:57:33;4.10;;;3.35;;
21494;SDS011;10909;53.590;10.054;2023-04-24T13:00:00;3.70;;;3.40;;
21494;SDS011;10909;53.590;10.054;2023-04-24T13:02:27;3.65;;;3.35;;
21494;SDS011;10909;53.590;10.054;2023-04-24T13:04:57;4.22;;;3.58;;
21494;SDS011;10909;53.590;10.054;2023-04-24T13:07:23;3.80;;;3.50;;
21494;SDS011;10909;53.590;10.054;2023-04-24T13:09:49;3.60;;;3.30;;
21494;SDS011;10909;53.590;10.054;2023-04-24T13:12:16;3.80;;;3.50;;
21494;SDS011;10909;53.590;10.054;2023-04-24T13:14:43;3.55;;;3.25;;
21494;SDS011;10909;53.590;10.054;2023-04-24T13:17:13;3.80;;;3.50;;
21494;SDS011;10909;53.590;10.054;2023-04-24T13:19:40;3.95;;;3.38;;
21494;SDS011;10909;53.590;10.054;2023-04-24T13:22:12;3.50;;;3.20;;
21494;SDS011;10909;53.590;10.054;2023-04-24T13:24:38;3.67;;;3.13;;
21494;SDS011;10909;53.590;10.054;2023-04-24T13:27:07;3.55;;;3.25;;
21494;SDS011;10909;53.590;10.054;2023-04-24T13:29:34;3.40;;;3.10;;
21494;SDS011;10909;53.590;10.054;2023-04-24T13:32:06;3.00;;;2.70;;
21494;SDS011;10909;53.590;10.054;2023-04-24T13:34:32;2.83;;;2.63;;
21494;SDS011;10909;53.590;10.054;2023-04-24T13:37:00;3.10;;;2.80;;
21494;SDS011;10909;53.590;10.054;2023-04-24T13:39:28;3.07;;;2.77;;
21494;SDS011;10909;53.590;10.054;2023-04-24T13:41:54;3.10;;;2.80;;
21494;SDS011;10909;53.590;10.054;2023-04-24T13:44:20;2.90;;;2.70;;
21494;SDS011;10909;53.590;10.054;2023-04-24T13:46:47;2.87;;;2.57;;
21494;SDS011;10909;53.590;10.054;2023-04-24T13:49:15;2.87;;;2.57;;
21494;SDS011;10909;53.590;10.054;2023-04-24T13:51:41;3.77;;;2.60;;
21494;SDS011;10909;53.590;10.054;2023-04-24T13:54:08;3.65;;;2.60;;
21494;SDS011;10909;53.590;10.054;2023-04-24T13:56:34;2.83;;;2.63;;
21494;SDS011;10909;53.590;10.054;2023-04-24T13:59:01;3.03;;;2.70;;
21494;SDS011;10909;53.590;10.054;2023-04-24T14:01:27;3.13;;;2.70;;
21494;SDS011;10909;53.590;10.054;2023-04-24T14:03:57;4.03;;;2.60;;
21494;SDS011;10909;53.590;10.054;2023-04-24T14:06:23;2.90;;;2.40;;
21494;SDS011;10909;53.590;10.054;2023-04-24T14:08:49;3.10;;;2.63;;
21494;SDS011;10909;53.590;10.054;2023-04-24T14:11:15;3.42;;;2.72;;
21494;SDS011;10909;53.590;10.054;2023-04-24T14:13:42;2.60;;;2.38;;
21494;SDS011;10909;53.590;10.054;2023-04-24T14:16:08;2.80;;;2.60;;
21494;SDS011;10909;53.590;10.054;2023-04-24T14:18:42;2.92;;;2.30;;
21494;SDS011;10909;53.590;10.054;2023-04-24T14:21:13;2.90;;;2.70;;
21494;SDS011;10909;53.590;10.054;2023-04-24T14:23:39;3.00;;;2.80;;
21494;SDS011;10909;53.590;10.054;2023-04-24T14:26:06;2.70;;;2.50;;
21494;SDS011;10909;53.590;10.054;2023-04-24T14:28:32;2.67;;;2.47;;
21494;SDS011;10909;53.590;10.054;2023-04-24T14:31:00;2.47;;;2.28;;
21494;SDS011;10909;53.590;10.054;2023-04-24T14:33:35;2.60;;;2.40;;
21494;SDS011;10909;53.590;10.054;2023-04-24T14:36:01;3.45;;;2.78;;
21494;SDS011;10909;53.590;10.054;2023-04-24T14:38:27;2.47;;;2.28;;
21494;SDS011;10909;53.590;10.054;2023-04-24T14:40:58;2.75;;;2.25;;
21494;SDS011;10909;53.590;10.054;2023-04-24T14:43:23;2.50;;;2.30;;
21494;SDS011;10909;53.590;10.054;2023-04-24T14:45:49;2.85;;;2.55;;
21494;SDS011;10909;53.590;10.054;2023-04-24T14:48:15;2.50;;;2.28;;
21494;SDS011;10909;53.590;10.054;2023-04-24T14:50:43;2.92;;;2.70;;